createdAt,value
2023-01-15T00:01:05.473Z,0.55
2023-01-15T00:03:32.642Z,1.00
2023-01-15T00:06:03.305Z,1.25
2023-01-15T00:08:29.884Z,0.60
2023-01-15T00:10:56.470Z,0.90
2023-01-15T00:13:23.229Z,0.80
2023-01-15T00:15:49.861Z,0.77
2023-01-15T00:18:16.448Z,1.05
2023-01-15T00:20:43.010Z,0.75
2023-01-15T00:23:29.515Z,0.70
2023-01-15T00:26:15.117Z,0.47
2023-01-15T00:28:41.961Z,0.50
2023-01-15T00:31:08.587Z,0.68
2023-01-15T00:33:35.195Z,1.38
2023-01-15T00:36:01.732Z,0.52
2023-01-15T00:38:28.280Z,1.05
2023-01-15T00:40:54.840Z,0.85
2023-01-15T00:43:21.415Z,0.50
2023-01-15T00:45:48.021Z,1.38
2023-01-15T00:48:14.617Z,0.60
2023-01-15T00:50:41.160Z,1.95
2023-01-15T00:53:07.726Z,0.60
2023-01-15T00:55:34.292Z,0.68
2023-01-15T00:58:00.843Z,0.70
2023-01-15T01:00:27.456Z,0.47
2023-01-15T01:02:54.019Z,0.68
2023-01-15T01:05:20.618Z,0.65
2023-01-15T01:07:47.210Z,0.40
2023-01-15T01:10:14.668Z,0.52
2023-01-15T01:12:41.239Z,0.43
2023-01-15T01:15:09.988Z,0.50
2023-01-15T01:17:40.036Z,0.50
2023-01-15T01:20:07.251Z,0.50
2023-01-15T01:22:33.858Z,0.50
2023-01-15T01:25:00.406Z,0.43
2023-01-15T01:27:26.985Z,0.68
2023-01-15T01:29:53.607Z,0.55
2023-01-15T01:32:20.204Z,0.80
2023-01-15T01:34:46.763Z,0.40
2023-01-15T01:37:13.317Z,0.40
2023-01-15T01:39:39.881Z,0.50
2023-01-15T01:42:15.597Z,0.35
2023-01-15T01:44:45.021Z,0.30
2023-01-15T01:47:15.837Z,0.47
2023-01-15T01:49:43.697Z,0.68
2023-01-15T01:52:21.461Z,0.35
2023-01-15T01:54:48.319Z,0.60
2023-01-15T01:57:16.086Z,0.60
2023-01-15T01:59:43.221Z,0.50
2023-01-15T02:02:10.069Z,0.40
2023-01-15T02:04:37.637Z,0.65
2023-01-15T02:07:04.632Z,0.90
2023-01-15T02:09:31.217Z,0.52
2023-01-15T02:12:12.414Z,0.60
2023-01-15T02:15:15.549Z,0.40
2023-01-15T02:18:17.418Z,0.50
2023-01-15T02:20:46.894Z,0.60
2023-01-15T02:23:28.546Z,0.60
2023-01-15T02:25:55.202Z,0.82
2023-01-15T02:28:25.877Z,0.70
2023-01-15T02:31:24.522Z,0.50
2023-01-15T02:34:03.292Z,1.13
2023-01-15T02:36:33.713Z,0.57
2023-01-15T02:39:03.673Z,0.80
2023-01-15T02:41:37.038Z,0.60
2023-01-15T02:44:05.569Z,0.60
2023-01-15T02:49:00.796Z,0.85
2023-01-15T02:51:31.948Z,0.82
2023-01-15T02:54:01.401Z,0.80
2023-01-15T02:56:30.534Z,0.77
2023-01-15T02:59:00.773Z,0.80
2023-01-15T03:01:34.826Z,0.73
2023-01-15T03:04:09.869Z,0.68
2023-01-15T03:06:45.843Z,0.60
2023-01-15T03:09:14.360Z,0.73
2023-01-15T03:14:22.359Z,0.80
2023-01-15T03:16:56.666Z,1.00
2023-01-15T03:19:31.806Z,1.40
2023-01-15T03:22:03.635Z,1.35
2023-01-15T03:24:33.526Z,2.15
2023-01-15T03:27:01.539Z,1.27
2023-01-15T03:29:31.853Z,2.00
2023-01-15T03:31:59.730Z,2.00
2023-01-15T03:34:34.129Z,2.05
2023-01-15T03:37:00.677Z,1.85
2023-01-15T03:39:27.257Z,1.70
2023-01-15T03:42:18.591Z,1.98
2023-01-15T03:44:58.340Z,2.10
2023-01-15T03:47:31.166Z,1.83
2023-01-15T03:50:03.591Z,2.22
2023-01-15T03:52:42.083Z,1.70
2023-01-15T03:58:00.911Z,2.67
2023-01-15T04:00:50.053Z,1.98
2023-01-15T04:03:18.123Z,1.55
2023-01-15T04:05:45.121Z,1.42
2023-01-15T04:08:12.843Z,2.00
2023-01-15T04:10:51.220Z,2.20
2023-01-15T04:15:44.252Z,2.00
2023-01-15T04:18:10.882Z,1.73
2023-01-15T04:20:37.503Z,1.77
2023-01-15T04:23:04.070Z,1.70
2023-01-15T04:25:30.631Z,1.25
2023-01-15T04:27:57.134Z,2.20
2023-01-15T04:30:23.842Z,1.38
2023-01-15T04:32:51.815Z,1.13
2023-01-15T04:35:19.683Z,1.27
2023-01-15T04:37:46.613Z,1.13
2023-01-15T04:40:33.777Z,1.27
2023-01-15T04:43:18.880Z,1.30
2023-01-15T04:45:45.940Z,1.27
2023-01-15T04:48:12.862Z,1.52
2023-01-15T04:50:40.566Z,1.90
2023-01-15T04:53:07.245Z,1.20
2023-01-15T04:55:33.989Z,1.30
2023-01-15T04:58:00.560Z,1.60
2023-01-15T05:00:27.144Z,1.02
2023-01-15T05:02:53.696Z,1.75
2023-01-15T05:05:20.268Z,1.27
2023-01-15T05:07:46.800Z,1.13
2023-01-15T05:10:13.354Z,1.17
2023-01-15T05:12:39.917Z,1.27
2023-01-15T05:15:06.994Z,1.52
2023-01-15T05:17:34.092Z,1.10
2023-01-15T05:20:00.711Z,1.25
2023-01-15T05:22:27.299Z,1.52
2023-01-15T05:24:53.843Z,1.02
2023-01-15T05:27:20.423Z,1.20
2023-01-15T05:29:48.017Z,1.30
2023-01-15T05:32:14.624Z,1.30
2023-01-15T05:34:41.216Z,1.10
2023-01-15T05:37:07.757Z,1.30
2023-01-15T05:39:34.381Z,1.83
2023-01-15T05:42:02.295Z,1.30
2023-01-15T05:44:30.050Z,1.48
2023-01-15T05:46:59.268Z,1.10
2023-01-15T05:49:27.205Z,1.20
2023-01-15T05:51:54.818Z,1.50
2023-01-15T05:54:24.462Z,1.13
2023-01-15T05:56:51.851Z,1.05
2023-01-15T05:59:21.092Z,1.25
2023-01-15T06:01:48.312Z,1.15
2023-01-15T06:04:15.286Z,1.42
2023-01-15T06:06:42.930Z,1.60
2023-01-15T06:09:09.892Z,1.33
2023-01-15T06:11:36.509Z,1.10
2023-01-15T06:14:03.298Z,1.65
2023-01-15T06:16:29.896Z,1.30
2023-01-15T06:19:00.579Z,1.08
2023-01-15T06:21:27.144Z,1.52
2023-01-15T06:23:54.460Z,2.10
2023-01-15T06:26:21.105Z,1.33
2023-01-15T06:28:47.727Z,1.30
2023-01-15T06:31:16.823Z,1.42
2023-01-15T06:33:43.915Z,1.27
2023-01-15T06:36:13.200Z,1.10
2023-01-15T06:38:40.358Z,1.60
2023-01-15T06:41:26.864Z,1.27
2023-01-15T06:44:23.011Z,1.50
2023-01-15T06:47:09.479Z,1.83
2023-01-15T06:49:36.984Z,1.50
2023-01-15T06:52:04.546Z,1.50
2023-01-15T06:54:31.566Z,1.90
2023-01-15T06:56:58.132Z,1.75
2023-01-15T06:59:24.745Z,2.03
2023-01-15T07:01:51.432Z,1.52
2023-01-15T07:04:18.102Z,1.65
2023-01-15T07:06:44.651Z,1.70
2023-01-15T07:09:11.329Z,1.67
2023-01-15T07:11:49.674Z,1.92
2023-01-15T07:17:01.081Z,1.30
2023-01-15T07:19:27.838Z,1.60
2023-01-15T07:21:55.026Z,1.60
2023-01-15T07:24:21.761Z,1.67
2023-01-15T07:26:48.390Z,1.33
2023-01-15T07:29:15.804Z,2.08
2023-01-15T07:31:42.532Z,1.45
2023-01-15T07:34:09.989Z,1.80
2023-01-15T07:36:37.056Z,1.42
2023-01-15T07:39:05.556Z,1.90
2023-01-15T07:44:36.234Z,1.65
2023-01-15T07:47:21.861Z,1.88
2023-01-15T07:49:51.547Z,1.80
2023-01-15T07:52:19.927Z,2.00
2023-01-15T07:54:48.036Z,1.80
2023-01-15T07:57:16.865Z,2.60
2023-01-15T07:59:43.494Z,2.15
2023-01-15T08:02:10.213Z,1.60
2023-01-15T08:04:36.934Z,1.52
2023-01-15T08:07:03.917Z,2.00
2023-01-15T08:09:30.739Z,2.10
2023-01-15T08:12:19.547Z,2.10
2023-01-15T08:15:04.853Z,2.05
2023-01-15T08:17:34.878Z,1.92
2023-01-15T08:20:03.253Z,1.58
2023-01-15T08:22:29.871Z,1.88
2023-01-15T08:24:56.491Z,1.70
2023-01-15T08:27:23.313Z,1.70
2023-01-15T08:29:50.041Z,2.08
2023-01-15T08:32:16.625Z,1.67
2023-01-15T08:34:43.330Z,1.90
2023-01-15T08:37:09.900Z,1.58
2023-01-15T08:39:36.518Z,1.90
2023-01-15T08:42:03.236Z,1.92
2023-01-15T08:44:29.984Z,1.80
2023-01-15T08:46:56.559Z,1.40
2023-01-15T08:49:23.128Z,1.60
2023-01-15T08:51:52.054Z,2.13
2023-01-15T08:54:20.386Z,1.80
2023-01-15T08:56:47.554Z,1.73
2023-01-15T08:59:14.379Z,1.30
2023-01-15T09:01:42.872Z,1.75
2023-01-15T09:06:36.642Z,1.77
2023-01-15T09:09:03.307Z,1.60
2023-01-15T09:11:30.025Z,1.23
2023-01-15T09:13:57.064Z,1.40
2023-01-15T09:16:24.045Z,1.50
2023-01-15T09:18:50.635Z,1.50
2023-01-15T09:21:17.477Z,1.63
2023-01-15T09:23:44.021Z,1.77
2023-01-15T09:26:36.031Z,1.92
2023-01-15T09:29:04.228Z,1.20
2023-01-15T09:31:31.370Z,1.35
2023-01-15T09:33:58.176Z,1.70
2023-01-15T09:36:28.342Z,1.40
2023-01-15T09:38:58.916Z,1.40
2023-01-15T09:41:45.989Z,1.40
2023-01-15T09:44:39.919Z,1.40
2023-01-15T09:47:20.309Z,1.85
2023-01-15T09:49:55.997Z,1.85
2023-01-15T09:52:55.064Z,1.17
2023-01-15T09:55:30.604Z,1.30
2023-01-15T09:57:59.774Z,2.10
2023-01-15T10:00:28.157Z,1.58
2023-01-15T10:03:19.145Z,1.40
2023-01-15T10:05:55.609Z,1.25
2023-01-15T10:08:35.118Z,1.20
2023-01-15T10:11:18.812Z,1.58
2023-01-15T10:14:05.328Z,1.38
2023-01-15T10:16:33.827Z,1.52
2023-01-15T10:21:42.312Z,1.10
2023-01-15T10:24:18.759Z,1.52
2023-01-15T10:26:45.273Z,1.20
2023-01-15T10:29:11.992Z,1.50
2023-01-15T10:31:59.658Z,1.27
2023-01-15T10:34:36.703Z,1.08
2023-01-15T10:37:12.594Z,1.48
2023-01-15T10:39:42.136Z,1.70
2023-01-15T10:42:30.900Z,1.25
2023-01-15T10:45:00.137Z,0.90
2023-01-15T10:47:34.523Z,1.20
2023-01-15T10:50:04.033Z,1.40
2023-01-15T10:52:35.704Z,1.25
2023-01-15T10:55:21.235Z,1.20
2023-01-15T10:58:09.849Z,1.10
2023-01-15T11:00:38.401Z,1.40
2023-01-15T11:03:11.833Z,1.40
2023-01-15T11:05:38.973Z,0.93
2023-01-15T11:08:45.099Z,1.30
2023-01-15T11:11:02.769Z,1.10
2023-01-15T11:13:48.086Z,1.20
2023-01-15T11:16:34.933Z,1.10
2023-01-15T11:19:24.528Z,1.02
2023-01-15T11:21:52.810Z,1.10
2023-01-15T11:24:19.516Z,1.48
2023-01-15T11:26:48.704Z,1.08
2023-01-15T11:29:21.827Z,1.40
2023-01-15T11:31:48.426Z,1.20
2023-01-15T11:34:22.654Z,1.40
2023-01-15T11:36:49.312Z,1.20
2023-01-15T11:39:27.922Z,1.83
2023-01-15T11:42:20.649Z,1.00
2023-01-15T11:45:12.878Z,1.30
2023-01-15T11:47:58.055Z,1.45
2023-01-15T11:50:43.654Z,0.80
2023-01-15T11:53:19.679Z,0.93
2023-01-15T11:56:02.064Z,0.90
2023-01-15T11:58:33.129Z,1.30
2023-01-15T12:01:00.074Z,0.98
2023-01-15T12:03:29.299Z,0.95
2023-01-15T12:06:00.612Z,1.30
2023-01-15T12:08:51.930Z,1.10
2023-01-15T12:11:26.750Z,0.93
2023-01-15T12:14:19.286Z,1.25
2023-01-15T12:16:49.630Z,1.17
2023-01-15T12:19:26.821Z,0.70
2023-01-15T12:22:14.274Z,1.20
2023-01-15T12:25:02.542Z,1.40
2023-01-15T12:27:49.502Z,1.65
2023-01-15T12:30:25.368Z,1.10
2023-01-15T12:33:33.377Z,1.02
2023-01-15T12:36:08.870Z,1.08
2023-01-15T12:38:47.599Z,1.50
2023-01-15T12:41:17.860Z,1.17
2023-01-15T12:44:06.149Z,1.10
2023-01-15T12:49:14.354Z,1.08
2023-01-15T12:51:47.990Z,1.48
2023-01-15T12:54:15.980Z,1.05
2023-01-15T12:56:47.443Z,1.20
2023-01-15T12:59:19.423Z,1.25
2023-01-15T13:02:09.834Z,1.40
2023-01-15T13:05:01.179Z,1.35
2023-01-15T13:07:34.956Z,1.15
2023-01-15T13:10:21.383Z,1.10
2023-01-15T13:12:49.260Z,2.20
2023-01-15T13:15:18.276Z,1.00
2023-01-15T13:18:07.854Z,1.63
2023-01-15T13:20:45.877Z,2.17
2023-01-15T13:23:15.433Z,1.08
2023-01-15T13:25:48.997Z,1.10
2023-01-15T13:28:45.897Z,1.40
2023-01-15T13:32:09.942Z,1.40
2023-01-15T13:34:40.712Z,1.50
2023-01-15T13:37:26.873Z,1.17
2023-01-15T13:39:58.626Z,1.20
2023-01-15T13:42:32.513Z,1.63
2023-01-15T13:45:07.320Z,1.10
2023-01-15T13:47:36.167Z,1.33
2023-01-15T13:50:14.308Z,1.05
2023-01-15T13:52:40.938Z,1.40
2023-01-15T13:55:21.178Z,1.60
2023-01-15T13:57:49.040Z,1.17
2023-01-15T14:00:34.909Z,0.88
2023-01-15T14:03:03.181Z,1.25
2023-01-15T14:05:34.914Z,1.27
2023-01-15T14:08:03.108Z,1.17
2023-01-15T14:10:33.758Z,1.23
2023-01-15T14:13:21.819Z,1.10
2023-01-15T14:16:09.937Z,1.17
2023-01-15T14:18:47.261Z,1.25
2023-01-15T14:21:29.799Z,1.00
2023-01-15T14:24:21.215Z,0.80
2023-01-15T14:26:50.483Z,1.05
2023-01-15T14:29:42.177Z,0.80
2023-01-15T14:32:42.123Z,1.17
2023-01-15T14:35:13.301Z,1.00
2023-01-15T14:37:53.372Z,1.25
2023-01-15T14:40:24.213Z,0.75
2023-01-15T14:43:02.211Z,1.00
2023-01-15T14:45:31.993Z,0.80
2023-01-15T14:48:11.997Z,0.93
2023-01-15T14:50:42.115Z,1.08
2023-01-15T14:53:11.760Z,1.00
2023-01-15T14:55:44.940Z,1.13
2023-01-15T14:58:25.754Z,1.00
2023-01-15T15:00:55.696Z,1.05
2023-01-15T15:03:34.017Z,0.90
2023-01-15T15:06:00.796Z,0.98
2023-01-15T15:08:31.116Z,1.33
2023-01-15T15:10:58.473Z,1.02
2023-01-15T15:13:40.235Z,1.20
2023-01-15T15:16:25.784Z,1.50
2023-01-15T15:19:17.087Z,1.40
2023-01-15T15:21:46.289Z,1.15
2023-01-15T15:24:21.464Z,1.50
2023-01-15T15:26:48.034Z,1.20
2023-01-15T15:29:20.066Z,1.52
2023-01-15T15:31:51.402Z,1.08
2023-01-15T15:34:24.368Z,0.93
2023-01-15T15:36:51.011Z,1.00
2023-01-15T15:39:25.644Z,0.80
2023-01-15T15:42:12.156Z,1.30
2023-01-15T15:45:02.607Z,0.90
2023-01-15T15:47:56.671Z,1.27
2023-01-15T15:50:26.332Z,1.52
2023-01-15T15:52:53.549Z,0.90
2023-01-15T15:55:21.759Z,0.93
2023-01-15T15:57:51.858Z,1.10
2023-01-15T16:00:35.886Z,1.33
2023-01-15T16:03:18.461Z,1.15
2023-01-15T16:05:56.223Z,1.20
2023-01-15T16:08:23.258Z,1.30
2023-01-15T16:10:52.010Z,1.13
2023-01-15T16:13:31.277Z,1.50
2023-01-15T16:15:59.805Z,0.95
2023-01-15T16:21:00.271Z,1.23
2023-01-15T16:23:28.701Z,1.08
2023-01-15T16:26:15.872Z,1.10
2023-01-15T16:28:47.205Z,0.93
2023-01-15T16:31:14.217Z,1.13
2023-01-15T16:33:41.051Z,1.30
2023-01-15T16:36:08.370Z,1.10
2023-01-15T16:38:48.066Z,1.25
2023-01-15T16:41:19.778Z,1.20
2023-01-15T16:43:52.737Z,1.30
2023-01-15T16:46:20.338Z,1.20
2023-01-15T16:48:48.531Z,1.10
2023-01-15T16:51:27.012Z,1.27
2023-01-15T16:53:54.072Z,1.13
2023-01-15T16:56:38.789Z,1.27
2023-01-15T16:59:16.083Z,1.20
2023-01-15T17:01:46.243Z,1.95
2023-01-15T17:04:27.730Z,1.30
2023-01-15T17:07:02.946Z,1.30
2023-01-15T17:09:33.196Z,1.35
2023-01-15T17:12:01.754Z,1.30
2023-01-15T17:17:19.574Z,1.30
2023-01-15T17:19:46.152Z,2.70
2023-01-15T17:22:19.578Z,1.10
2023-01-15T17:24:50.392Z,1.23
2023-01-15T17:27:16.987Z,1.65
2023-01-15T17:29:44.408Z,1.40
2023-01-15T17:32:16.853Z,1.27
2023-01-15T17:34:43.522Z,1.33
2023-01-15T17:37:10.064Z,1.48
2023-01-15T17:39:36.613Z,1.05
2023-01-15T17:42:12.430Z,1.20
2023-01-15T17:44:39.082Z,1.65
2023-01-15T17:47:06.022Z,1.23
2023-01-15T17:49:32.686Z,1.33
2023-01-15T17:52:00.120Z,1.63
2023-01-15T17:54:45.459Z,0.90
2023-01-15T17:57:30.579Z,1.10
2023-01-15T18:00:15.766Z,1.08
2023-01-15T18:03:01.304Z,1.02
2023-01-15T18:05:32.827Z,1.30
2023-01-15T18:08:01.909Z,0.90
2023-01-15T18:10:28.483Z,1.35
2023-01-15T18:12:55.058Z,1.10
2023-01-15T18:15:21.648Z,1.05
2023-01-15T18:17:48.356Z,1.00
2023-01-15T18:20:14.994Z,1.10
2023-01-15T18:22:41.603Z,1.00
2023-01-15T18:25:10.889Z,1.52
2023-01-15T18:27:42.793Z,1.38
2023-01-15T18:30:14.404Z,1.23
2023-01-15T18:32:41.564Z,1.20
2023-01-15T18:35:08.580Z,1.30
2023-01-15T18:37:35.892Z,1.20
2023-01-15T18:40:02.427Z,1.00
2023-01-15T18:42:47.507Z,1.38
2023-01-15T18:45:33.042Z,1.52
2023-01-15T18:48:02.875Z,1.77
2023-01-15T18:50:29.939Z,1.10
2023-01-15T18:52:56.577Z,1.10
2023-01-15T18:55:27.177Z,1.10
2023-01-15T18:57:54.766Z,0.93
2023-01-15T19:00:23.323Z,1.23
2023-01-15T19:05:18.654Z,1.17
2023-01-15T19:07:45.789Z,1.23
2023-01-15T19:10:13.696Z,1.40
2023-01-15T19:12:40.304Z,1.27
2023-01-15T19:15:26.454Z,1.13
2023-01-15T19:18:11.674Z,1.92
2023-01-15T19:20:39.167Z,1.02
2023-01-15T19:23:06.784Z,1.15
2023-01-15T19:25:44.745Z,1.10
2023-01-15T19:28:15.360Z,1.15
2023-01-15T19:30:42.316Z,1.40
2023-01-15T19:33:09.862Z,1.15
2023-01-15T19:35:37.876Z,1.33
2023-01-15T19:38:08.173Z,1.10
2023-01-15T19:40:37.847Z,1.10
2023-01-15T19:43:23.036Z,1.10
2023-01-15T19:46:08.324Z,1.25
2023-01-15T19:48:53.293Z,1.30
2023-01-15T19:51:21.086Z,1.17
2023-01-15T19:53:47.950Z,1.05
2023-01-15T19:56:14.552Z,1.30
2023-01-15T19:58:41.385Z,1.20
2023-01-15T20:01:14.599Z,0.90
2023-01-15T20:03:41.263Z,1.27
2023-01-15T20:06:08.617Z,1.30
2023-01-15T20:08:35.300Z,1.35
2023-01-15T20:11:01.840Z,1.10
2023-01-15T20:13:47.022Z,1.20
2023-01-15T20:16:15.740Z,1.25
2023-01-15T20:18:42.408Z,1.20
2023-01-15T20:21:12.254Z,1.10
2023-01-15T20:23:40.152Z,1.58
2023-01-15T20:26:12.520Z,1.23
2023-01-15T20:28:41.775Z,0.95
2023-01-15T20:31:15.836Z,1.10
2023-01-15T20:33:42.477Z,1.02
2023-01-15T20:36:09.570Z,1.10
2023-01-15T20:38:36.169Z,1.00
2023-01-15T20:41:28.180Z,1.02
2023-01-15T20:44:13.711Z,1.15
2023-01-15T20:46:40.289Z,0.98
2023-01-15T20:49:26.095Z,1.15
2023-01-15T20:51:52.911Z,1.30
2023-01-15T20:54:23.517Z,1.20
2023-01-15T20:56:50.316Z,1.00
2023-01-15T20:59:17.075Z,1.13
2023-01-15T21:01:43.732Z,1.05
2023-01-15T21:04:12.602Z,1.40
2023-01-15T21:06:39.308Z,0.90
2023-01-15T21:09:06.154Z,1.17
2023-01-15T21:11:32.840Z,1.30
2023-01-15T21:13:59.440Z,1.17
2023-01-15T21:16:26.096Z,1.10
2023-01-15T21:18:52.740Z,1.02
2023-01-15T21:21:19.684Z,1.00
2023-01-15T21:23:46.831Z,1.30
2023-01-15T21:26:14.633Z,1.10
2023-01-15T21:28:42.013Z,1.00
2023-01-15T21:31:09.441Z,1.05
2023-01-15T21:33:36.298Z,1.00
2023-01-15T21:36:07.957Z,1.00
2023-01-15T21:38:34.891Z,1.20
2023-01-15T21:41:13.335Z,1.35
2023-01-15T21:46:27.940Z,1.42
2023-01-15T21:48:59.122Z,1.13
2023-01-15T21:51:26.839Z,1.10
2023-01-15T21:53:53.704Z,1.30
2023-01-15T21:56:20.403Z,1.50
2023-01-15T21:58:46.981Z,1.40
2023-01-15T22:01:18.142Z,1.50
2023-01-15T22:03:44.850Z,1.17
2023-01-15T22:06:11.495Z,1.15
2023-01-15T22:08:38.086Z,1.30
2023-01-15T22:11:06.068Z,1.02
2023-01-15T22:13:33.308Z,1.10
2023-01-15T22:16:05.880Z,1.50
2023-01-15T22:18:33.453Z,1.33
2023-01-15T22:21:01.950Z,1.07
2023-01-15T22:25:55.676Z,1.05
2023-01-15T22:28:22.602Z,1.30
2023-01-15T22:30:49.310Z,1.20
2023-01-15T22:33:16.572Z,0.90
2023-01-15T22:35:43.285Z,1.20
2023-01-15T22:38:09.897Z,1.05
2023-01-15T22:40:38.904Z,1.05
2023-01-15T22:43:05.497Z,0.80
2023-01-15T22:45:32.050Z,1.20
2023-01-15T22:47:58.672Z,0.90
2023-01-15T22:50:25.321Z,1.35
2023-01-15T22:52:51.927Z,1.15
2023-01-15T22:55:18.605Z,1.38
2023-01-15T22:57:47.441Z,1.10
2023-01-15T23:00:14.421Z,1.13
2023-01-15T23:02:56.393Z,1.08
2023-01-15T23:05:24.665Z,1.13
2023-01-15T23:07:51.311Z,1.45
2023-01-15T23:10:18.091Z,1.48
2023-01-15T23:12:44.730Z,1.00
2023-01-15T23:15:13.448Z,1.50
2023-01-15T23:17:40.413Z,1.10
2023-01-15T23:20:08.291Z,1.05
2023-01-15T23:22:34.953Z,1.13
2023-01-15T23:25:01.546Z,1.30
2023-01-15T23:27:28.194Z,1.13
2023-01-15T23:29:54.834Z,1.85
2023-01-15T23:32:21.430Z,1.23
2023-01-15T23:34:47.995Z,0.95
2023-01-15T23:37:14.556Z,0.98
2023-01-15T23:39:41.131Z,1.17
2023-01-15T23:42:28.774Z,1.10
2023-01-15T23:45:21.525Z,1.35
2023-01-15T23:47:48.201Z,0.90
2023-01-15T23:50:15.045Z,1.00
2023-01-15T23:52:41.621Z,1.20
2023-01-15T23:55:08.598Z,0.95
2023-01-15T23:57:35.165Z,1.08
